createdAt,value
2019-01-20T00:02:51.775Z,-6.19
2019-01-20T00:07:54.687Z,-6.02
2019-01-20T00:12:57.427Z,-6.04
2019-01-20T00:17:59.384Z,-6.09
2019-01-20T00:23:01.295Z,-6.27
2019-01-20T00:28:03.405Z,-6.35
2019-01-20T00:33:05.426Z,-6.30
2019-01-20T00:38:07.360Z,-6.15
2019-01-20T00:43:09.509Z,-6.26
2019-01-20T00:48:11.556Z,-6.19
2019-01-20T00:53:13.591Z,-6.24
2019-01-20T00:58:15.698Z,-6.24
2019-01-20T01:03:17.801Z,-6.12
2019-01-20T01:08:19.827Z,-6.04
2019-01-20T01:13:22.354Z,-6.02
2019-01-20T01:18:24.375Z,-6.06
2019-01-20T01:23:26.364Z,-6.23
2019-01-20T01:28:28.292Z,-6.31
2019-01-20T01:33:31.287Z,-6.52
2019-01-20T01:38:33.308Z,-6.85
2019-01-20T01:43:35.211Z,-6.99
2019-01-20T01:48:37.377Z,-6.91
2019-01-20T01:53:39.406Z,-7.04
2019-01-20T01:58:41.455Z,-7.03
2019-01-20T02:03:43.473Z,-7.10
2019-01-20T02:08:45.502Z,-7.28
2019-01-20T02:13:47.470Z,-7.27
2019-01-20T02:18:49.377Z,-7.10
2019-01-20T02:23:51.422Z,-7.20
2019-01-20T02:28:53.313Z,-7.33
2019-01-20T02:33:55.235Z,-7.43
2019-01-20T02:38:57.256Z,-7.41
2019-01-20T02:43:59.326Z,-7.45
2019-01-20T02:49:02.347Z,-7.56
2019-01-20T02:54:04.376Z,-7.45
2019-01-20T02:59:06.512Z,-7.44
2019-01-20T03:04:08.537Z,-7.62
2019-01-20T03:09:10.551Z,-7.63
2019-01-20T03:14:12.607Z,-7.53
2019-01-20T03:19:14.751Z,-7.56
2019-01-20T03:24:16.867Z,-7.44
2019-01-20T03:29:18.774Z,-7.62
2019-01-20T03:34:20.695Z,-7.67
2019-01-20T03:39:22.640Z,-7.67
2019-01-20T03:44:24.552Z,-7.73
2019-01-20T03:49:26.538Z,-7.52
2019-01-20T03:54:29.844Z,-7.55
2019-01-20T03:59:31.916Z,-7.57
2019-01-20T04:04:33.817Z,-7.42
2019-01-20T04:09:35.752Z,-7.42
2019-01-20T04:14:37.717Z,-7.41
2019-01-20T04:19:39.866Z,-7.44
2019-01-20T04:24:43.288Z,-7.63
2019-01-20T04:29:45.204Z,-7.80
2019-01-20T04:34:47.112Z,-7.80
2019-01-20T04:39:49.302Z,-7.92
2019-01-20T04:44:51.427Z,-7.99
2019-01-20T04:49:53.372Z,-8.04
2019-01-20T04:54:55.387Z,-7.79
2019-01-20T04:59:57.524Z,-7.75
2019-01-20T05:04:59.429Z,-7.79
2019-01-20T05:10:04.487Z,-7.87
2019-01-20T05:15:10.190Z,-7.81
2019-01-20T05:20:12.533Z,-7.78
2019-01-20T05:25:14.945Z,-7.81
2019-01-20T05:30:19.369Z,-7.88
2019-01-20T05:35:21.384Z,-7.98
2019-01-20T05:40:24.726Z,-8.01
2019-01-20T05:45:26.742Z,-8.00
2019-01-20T05:50:28.789Z,-7.84
2019-01-20T05:55:30.704Z,-7.55
2019-01-20T06:00:33.287Z,-7.44
2019-01-20T06:05:36.085Z,-7.50
2019-01-20T06:10:38.028Z,-7.63
2019-01-20T06:15:40.013Z,-7.33
2019-01-20T06:20:42.014Z,-7.34
2019-01-20T06:25:43.943Z,-7.43
2019-01-20T06:30:45.871Z,-7.23
2019-01-20T06:35:47.919Z,-7.36
2019-01-20T06:40:49.846Z,-7.46
2019-01-20T06:45:51.821Z,-7.59
2019-01-20T06:50:53.877Z,-7.60
2019-01-20T06:55:55.779Z,-7.92
2019-01-20T07:00:57.762Z,-8.16
2019-01-20T07:05:59.896Z,-8.25
2019-01-20T07:11:01.852Z,-8.36
2019-01-20T07:16:04.955Z,-8.34
2019-01-20T07:21:06.857Z,-8.27
2019-01-20T07:26:08.766Z,-8.18
2019-01-20T07:31:10.714Z,-8.22
2019-01-20T07:36:12.639Z,-8.04
2019-01-20T07:41:14.579Z,-7.94
2019-01-20T07:46:16.638Z,-7.78
2019-01-20T07:51:18.704Z,-7.77
2019-01-20T07:56:20.721Z,-7.65
2019-01-20T08:01:22.786Z,-7.61
2019-01-20T08:06:24.715Z,-7.48
2019-01-20T08:11:26.619Z,-7.41
2019-01-20T08:16:28.763Z,-7.34
2019-01-20T08:21:31.139Z,-7.15
2019-01-20T08:26:33.037Z,-6.99
2019-01-20T08:31:34.950Z,-6.84
2019-01-20T08:36:36.878Z,-6.74
2019-01-20T08:41:38.861Z,-6.45
2019-01-20T08:46:55.164Z,-6.25
2019-01-20T08:51:57.133Z,-6.05
2019-01-20T08:56:59.037Z,-5.69
2019-01-20T09:02:00.979Z,-5.10
2019-01-20T09:07:03.091Z,-4.57
2019-01-20T09:12:05.089Z,-4.19
2019-01-20T09:17:07.170Z,-3.87
2019-01-20T09:22:09.175Z,-3.49
2019-01-20T09:27:11.285Z,-3.07
2019-01-20T09:32:13.491Z,-2.68
2019-01-20T09:37:15.417Z,-1.89
2019-01-20T09:42:17.353Z,-1.54
2019-01-20T09:47:19.315Z,-1.31
2019-01-20T09:52:21.261Z,-0.74
2019-01-20T09:57:23.579Z,-0.48
2019-01-20T10:02:25.496Z,-0.71
2019-01-20T10:07:27.432Z,-0.07
2019-01-20T10:12:29.348Z,0.05
2019-01-20T10:17:31.382Z,0.11
2019-01-20T10:22:33.396Z,0.37
2019-01-20T10:27:35.640Z,0.78
2019-01-20T10:32:37.947Z,1.15
2019-01-20T10:37:40.254Z,1.12
2019-01-20T10:42:42.259Z,1.61
2019-01-20T10:47:44.241Z,2.04
2019-01-20T10:52:46.380Z,2.36
2019-01-20T10:57:48.542Z,1.97
2019-01-20T11:02:50.558Z,1.98
2019-01-20T11:07:52.697Z,2.83
2019-01-20T11:12:54.999Z,2.80
2019-01-20T11:17:56.964Z,2.75
2019-01-20T11:22:58.974Z,2.89
2019-01-20T11:28:01.161Z,2.80
2019-01-20T11:33:03.746Z,2.76
2019-01-20T11:38:05.823Z,3.22
2019-01-20T11:43:08.613Z,2.56
2019-01-20T11:48:10.817Z,2.80
2019-01-20T11:53:12.926Z,2.23
2019-01-20T11:58:14.908Z,2.18
2019-01-20T12:03:16.905Z,2.53
2019-01-20T12:08:18.930Z,3.43
2019-01-20T12:13:26.462Z,3.61
2019-01-20T12:18:28.670Z,3.87
2019-01-20T12:23:30.563Z,3.48
2019-01-20T12:28:32.502Z,3.80
2019-01-20T12:33:34.510Z,3.12
2019-01-20T12:38:36.443Z,2.92
2019-01-20T12:43:38.453Z,3.38
2019-01-20T12:48:40.375Z,2.72
2019-01-20T12:53:42.419Z,3.52
2019-01-20T12:58:44.423Z,3.78
2019-01-20T13:03:47.455Z,2.84
2019-01-20T13:08:49.386Z,3.29
2019-01-20T13:13:51.397Z,3.12
2019-01-20T13:18:53.294Z,3.53
2019-01-20T13:23:55.276Z,5.80
2019-01-20T13:38:12.079Z,4.31
2019-01-20T13:48:14.210Z,3.22
2019-01-20T13:58:16.764Z,3.27
2019-01-20T14:08:19.116Z,4.29
2019-01-20T14:18:21.889Z,4.94
2019-01-20T14:28:24.215Z,5.36
2019-01-20T14:38:26.520Z,4.24
2019-01-20T14:48:28.773Z,3.83
2019-01-20T14:58:31.109Z,3.08
2019-01-20T15:08:33.088Z,0.91
2019-01-20T15:18:35.513Z,-0.03
2019-01-20T15:28:37.804Z,-0.61
2019-01-20T15:38:40.046Z,-0.95
2019-01-20T15:48:42.547Z,-1.36
2019-01-20T15:58:44.713Z,-1.71
2019-01-20T16:08:46.984Z,-2.01
2019-01-20T16:18:49.220Z,-2.20
2019-01-20T16:28:51.612Z,-2.38
2019-01-20T16:38:53.746Z,-2.53
2019-01-20T16:48:55.847Z,-2.73
2019-01-20T16:58:58.199Z,-2.42
2019-01-20T17:09:00.436Z,-2.42
2019-01-20T17:19:02.672Z,-2.47
2019-01-20T17:29:05.100Z,-2.78
2019-01-20T17:39:11.996Z,-2.94
2019-01-20T17:49:13.949Z,-2.91
2019-01-20T17:59:16.456Z,-2.87
2019-01-20T18:09:18.522Z,-3.15
2019-01-20T18:19:20.562Z,-2.94
2019-01-20T18:29:22.927Z,-2.85
2019-01-20T18:39:24.946Z,-2.59
2019-01-20T18:49:26.983Z,-2.92
2019-01-20T18:59:41.695Z,-3.11
2019-01-20T19:09:43.742Z,-2.97
2019-01-20T19:19:45.678Z,-3.25
2019-01-20T19:29:48.897Z,-3.42
2019-01-20T19:39:50.945Z,-3.49
2019-01-20T19:49:52.947Z,-3.46
2019-01-20T19:59:55.065Z,-3.61
2019-01-20T20:09:57.035Z,-3.78
2019-01-20T20:19:58.985Z,-3.86
2019-01-20T20:30:01.114Z,-4.05
2019-01-20T20:40:04.471Z,-3.99
2019-01-20T20:50:08.552Z,-3.91
2019-01-20T21:00:19.743Z,-4.06
2019-01-20T21:10:22.202Z,-3.92
2019-01-20T21:20:24.135Z,-4.13
2019-01-20T21:30:26.388Z,-4.09
2019-01-20T21:40:28.321Z,-4.14
2019-01-20T21:50:30.491Z,-4.62
2019-01-20T22:00:32.712Z,-4.84
2019-01-20T22:10:34.724Z,-4.83
2019-01-20T22:20:36.665Z,-5.11
2019-01-20T22:30:39.776Z,-4.89
2019-01-20T22:40:42.728Z,-4.86
2019-01-20T22:50:44.916Z,-5.07
2019-01-20T23:00:57.263Z,-5.01
2019-01-20T23:11:00.626Z,-4.93
2019-01-20T23:21:02.862Z,-4.63
2019-01-20T23:31:04.859Z,-4.66
2019-01-20T23:41:07.360Z,-4.64
2019-01-20T23:51:09.408Z,-5.06
